Everglades, Florida
Current Conditions -  °F | °C
As of 10:53 AM on Tuesday 21 Oct 2014 (Local Time) from KAPF Reporting Station
Few Clouds Few Clouds  
Wind Chill: 78°   Ceiling: Unl
Heat Index: 80°   Visibility: 10mi
Dew Point: 72°   Wind: 7mph
Humidity: 81%   Direction: 140°SE
Pressure: 29.97"   Gusts: NA
Location:  25.8583°N, 81.3702°W
Report Text: KAPF 211453Z 14006KT 10SM FEW060 26/22 A2997 RMK AO2 SLP147 T02560222 51015
Loading
Personal Weather Stations






























Interactive Weather Map
Tropical Storm Tracking
New forecast layout! Learn more

10-Day Weather Forecast

Advertisements
Track Severe Weather on mobile